Accueil
METAR-TAF:

METAR-TAF

Aéroports :

Huslia, Alaska, États-Unis

latitude: 65-41-52N, longitude: 156-21-05W, altitude: 65 m

Observation

Le bulletin a été fait il y a 48 minutes, à 12:56 UTC
Vent 4 kt de nord-est
Température -31°C
Humidité 82%
Pression 1018 hPa
Visibilité: 16.1 km
Ciel clair

METAR: PAHL 291256Z AUTO 04004KT 10SM CLR M31/M33 A3006 RMK AO2 SLP189 T13061333 FZRANO

Heure: 04:44 (13:44 UTC)


TAF: absent

Observations et prévisions météorologiques de plus de 4000 aéroports (messages METAR et TAF).

Les stations disponibles sont représentées par des disques jaunes et rouges sur la carte.

Passer la souris dessus pour voir le nom de la station.

Cliquer dessus pour voir les observations et prévisions météorologiques.

Pour changer de carte: cliquez sur les boutons verts avec une croix noire pour zoomer, sur le bouton vert avec un tiret pour effectuer un zoom arrière, ou sur les flèches vertes pour les cartes adjacentes.


METAR-TAF: